Time;durP1;ratioP1;P1;durP2;ratioP2;P2;SDS_P1;SDS_P2;PMS_P1;PMS_P2;Temp;Humidity;BMP_temperature;BMP_pressure;BME280_temperature;BME280_humidity;BME280_pressure;Samples;Min_cycle;Max_cycle;Signal;HPM_P1;HPM_P2
2023/10/01 00:00:06;;;;;;;18.53;10.67;;;;;;;;;;6212205;28;20226;-70
2023/10/01 00:03:08;;;;;;;22.50;12.23;;;;;;;;;;6233735;28;20218;-70
2023/10/01 00:06:09;;;;;;;22.20;11.97;;;;;;;;;;6204092;28;20191;-70
2023/10/01 00:09:10;;;;;;;23.43;11.83;;;;;;;;;;6212994;28;20272;-70
2023/10/01 00:12:11;;;;;;;18.97;11.47;;;;;;;;;;6252175;28;20284;-70
2023/10/01 00:15:14;;;;;;;18.10;11.07;;;;;;;;;;6208494;28;20195;-70
2023/10/01 00:18:15;;;;;;;20.50;11.10;;;;;;;;;;6222359;28;20191;-70
2023/10/01 00:21:17;;;;;;;24.07;12.30;;;;;;;;;;6213061;28;20191;-70
2023/10/01 00:24:18;;;;;;;25.30;12.47;;;;;;;;;;6217059;28;20234;-70
2023/10/01 00:27:19;;;;;;;22.43;11.60;;;;;;;;;;6217460;28;20187;-70
2023/10/01 00:30:23;;;;;;;20.30;10.83;;;;;;;;;;6211487;28;20191;-70
2023/10/01 00:33:25;;;;;;;20.67;11.43;;;;;;;;;;6213033;28;20211;-70
2023/10/01 00:36:28;;;;;;;21.80;11.27;;;;;;;;;;6214914;28;20199;-70
2023/10/01 00:39:29;;;;;;;25.67;12.20;;;;;;;;;;6204914;28;20195;-70
2023/10/01 00:42:33;;;;;;;26.27;12.97;;;;;;;;;;6206198;28;20217;-69
2023/10/01 00:45:34;;;;;;;26.27;11.70;;;;;;;;;;6231487;28;20196;-69
2023/10/01 00:48:36;;;;;;;21.93;12.10;;;;;;;;;;6220615;28;20227;-69
2023/10/01 00:51:37;;;;;;;21.03;12.10;;;;;;;;;;6232900;28;20190;-69
2023/10/01 00:54:38;;;;;;;20.60;11.10;;;;;;;;;;6228873;28;20197;-69
2023/10/01 00:57:39;;;;;;;22.60;12.07;;;;;;;;;;6212078;28;20221;-69
2023/10/01 01:00:42;;;;;;;23.40;11.67;;;;;;;;;;6217830;28;20197;-70
2023/10/01 01:03:43;;;;;;;22.80;11.40;;;;;;;;;;6216404;28;20245;-70
2023/10/01 01:06:47;;;;;;;21.30;11.80;;;;;;;;;;6211035;28;20198;-70
2023/10/01 01:09:49;;;;;;;22.67;11.07;;;;;;;;;;6214195;28;20282;-70
2023/10/01 01:12:54;;;;;;;19.60;11.07;;;;;;;;;;6220098;28;20223;-70
2023/10/01 01:15:57;;;;;;;19.80;10.93;;;;;;;;;;6207872;28;20285;-70
2023/10/01 01:19:00;;;;;;;23.43;11.60;;;;;;;;;;6221191;28;20206;-70
2023/10/01 01:22:01;;;;;;;20.63;10.73;;;;;;;;;;6216073;28;20357;-69
2023/10/01 01:25:10;;;;;;;19.07;10.67;;;;;;;;;;6217850;28;20191;-69
2023/10/01 01:28:24;;;;;;;20.47;10.80;;;;;;;;;;6233200;28;20186;-69
2023/10/01 01:31:28;;;;;;;19.57;11.10;;;;;;;;;;6232756;28;20188;-69
2023/10/01 01:34:29;;;;;;;21.43;10.57;;;;;;;;;;6211449;28;20217;-69
2023/10/01 01:37:36;;;;;;;21.50;11.67;;;;;;;;;;6207318;28;20194;-69
2023/10/01 01:40:40;;;;;;;21.03;10.60;;;;;;;;;;6213938;28;20217;-69
2023/10/01 01:43:43;;;;;;;19.87;10.97;;;;;;;;;;6206079;28;20295;-69
2023/10/01 01:46:59;;;;;;;20.33;10.57;;;;;;;;;;6217948;28;20202;-69
2023/10/01 01:50:10;;;;;;;18.47;10.50;;;;;;;;;;6224981;28;20197;-69
2023/10/01 01:53:12;;;;;;;21.17;10.73;;;;;;;;;;6230446;28;20195;-69
2023/10/01 01:56:16;;;;;;;23.50;11.40;;;;;;;;;;6217678;28;20249;-69
2023/10/01 01:59:21;;;;;;;20.57;11.27;;;;;;;;;;6229849;28;20191;-69
2023/10/01 02:02:23;;;;;;;19.20;10.63;;;;;;;;;;6207593;28;20203;-69
2023/10/01 02:05:28;;;;;;;19.87;10.67;;;;;;;;;;6209108;28;20198;-69
2023/10/01 02:08:35;;;;;;;16.93;9.57;;;;;;;;;;6233313;28;20222;-69
2023/10/01 02:11:37;;;;;;;16.97;9.67;;;;;;;;;;6214814;28;20249;-69
2023/10/01 02:14:40;;;;;;;17.47;9.80;;;;;;;;;;6207064;28;20202;-70
2023/10/01 02:17:41;;;;;;;20.00;10.40;;;;;;;;;;6217232;28;20196;-70
2023/10/01 02:20:44;;;;;;;19.70;11.63;;;;;;;;;;6207480;28;20240;-70
2023/10/01 02:23:45;;;;;;;18.90;11.10;;;;;;;;;;6206448;28;20249;-69
2023/10/01 02:26:47;;;;;;;19.80;10.37;;;;;;;;;;6198743;28;20203;-69
2023/10/01 02:33:18;;;;;;;21.50;10.33;;;;;;;;;;6210154;28;20200;-69
2023/10/01 02:36:22;;;;;;;18.23;10.73;;;;;;;;;;6216750;28;20247;-69
2023/10/01 02:39:29;;;;;;;20.70;10.77;;;;;;;;;;6194526;28;20200;-69
2023/10/01 02:42:31;;;;;;;18.87;10.80;;;;;;;;;;6218454;28;20208;-69
2023/10/01 02:45:34;;;;;;;20.80;11.13;;;;;;;;;;6205348;28;20215;-70
2023/10/01 02:48:36;;;;;;;20.63;12.03;;;;;;;;;;6193416;28;20219;-69
2023/10/01 02:51:39;;;;;;;18.23;10.63;;;;;;;;;;6202253;28;20226;-69
2023/10/01 02:54:41;;;;;;;19.27;10.07;;;;;;;;;;6197334;28;20202;-69
2023/10/01 02:57:42;;;;;;;18.43;10.27;;;;;;;;;;6209677;28;20243;-69
2023/10/01 03:00:43;;;;;;;20.93;11.23;;;;;;;;;;6198523;28;20221;-69
2023/10/01 03:03:44;;;;;;;22.13;11.27;;;;;;;;;;6222705;28;20298;-69
2023/10/01 03:06:57;;;;;;;19.40;11.00;;;;;;;;;;6188776;28;20238;-69
2023/10/01 03:10:00;;;;;;;18.90;10.20;;;;;;;;;;6215167;28;20220;-69
2023/10/01 03:13:14;;;;;;;19.00;11.03;;;;;;;;;;6196070;28;20191;-69
2023/10/01 03:19:36;;;;;;;20.77;11.07;;;;;;;;;;6212233;28;20196;-69
2023/10/01 03:22:37;;;;;;;20.27;11.00;;;;;;;;;;6201416;28;20386;-69
2023/10/01 03:25:42;;;;;;;22.00;11.27;;;;;;;;;;6195886;28;20190;-69
2023/10/01 03:35:24;;;;;;;19.60;10.43;;;;;;;;;;6220170;28;20192;-69
2023/10/01 03:38:27;;;;;;;19.73;10.03;;;;;;;;;;6203118;28;20196;-69
2023/10/01 03:41:52;;;;;;;17.17;10.80;;;;;;;;;;6222203;28;20202;-69
2023/10/01 03:48:19;;;;;;;17.90;10.60;;;;;;;;;;6204357;28;20180;-69
2023/10/01 03:51:28;;;;;;;20.33;10.77;;;;;;;;;;6192155;28;20228;-69
2023/10/01 04:04:28;;;;;;;25.87;10.23;;;;;;;;;;6216188;28;20305;-69
2023/10/01 04:07:45;;;;;;;17.97;10.83;;;;;;;;;;6209712;28;20234;-69
2023/10/01 04:10:57;;;;;;;20.03;9.90;;;;;;;;;;6205429;28;20191;-69
2023/10/01 04:14:07;;;;;;;19.30;10.70;;;;;;;;;;6191430;28;20200;-69
2023/10/01 04:17:13;;;;;;;18.50;10.97;;;;;;;;;;6211939;28;20346;-69
2023/10/01 04:20:19;;;;;;;19.33;10.43;;;;;;;;;;6205744;28;20192;-69
2023/10/01 04:23:32;;;;;;;21.70;11.03;;;;;;;;;;6201234;28;20244;-69
2023/10/01 04:26:35;;;;;;;17.00;9.70;;;;;;;;;;6221208;28;20176;-69
2023/10/01 04:29:44;;;;;;;19.00;10.67;;;;;;;;;;6210522;28;20191;-69
2023/10/01 04:32:47;;;;;;;22.57;10.80;;;;;;;;;;6194597;28;20188;-69
2023/10/01 04:35:58;;;;;;;20.90;10.90;;;;;;;;;;6203085;28;20195;-69
2023/10/01 04:39:00;;;;;;;18.57;10.43;;;;;;;;;;6206076;28;20214;-69
2023/10/01 04:42:01;;;;;;;18.20;9.77;;;;;;;;;;6203623;28;20187;-69
2023/10/01 04:45:22;;;;;;;20.23;10.93;;;;;;;;;;6208139;28;20183;-69
2023/10/01 04:48:23;;;;;;;19.63;11.33;;;;;;;;;;6210458;28;20192;-69
2023/10/01 04:51:44;;;;;;;21.73;10.77;;;;;;;;;;6203559;28;20194;-70
2023/10/01 04:54:45;;;;;;;20.40;11.07;;;;;;;;;;6196231;28;20233;-69
2023/10/01 04:57:48;;;;;;;19.73;11.40;;;;;;;;;;6205616;28;20275;-68
2023/10/01 05:00:49;;;;;;;25.17;10.80;;;;;;;;;;6190364;28;20287;-69
2023/10/01 05:03:52;;;;;;;18.63;10.10;;;;;;;;;;6201529;28;20214;-69
2023/10/01 05:07:04;;;;;;;22.50;10.80;;;;;;;;;;6194289;28;20188;-69
2023/10/01 05:10:07;;;;;;;20.13;10.77;;;;;;;;;;6201141;28;20283;-68
2023/10/01 05:13:08;;;;;;;23.27;10.80;;;;;;;;;;6203595;28;20200;-67
2023/10/01 05:16:13;;;;;;;21.63;10.37;;;;;;;;;;6202325;28;20199;-67
2023/10/01 05:19:14;;;;;;;21.07;10.37;;;;;;;;;;6216295;28;20279;-68
2023/10/01 05:22:17;;;;;;;17.77;9.53;;;;;;;;;;6204749;28;20240;-67
2023/10/01 05:25:18;;;;;;;20.43;10.43;;;;;;;;;;6214458;28;20288;-67
2023/10/01 05:28:31;;;;;;;19.90;10.83;;;;;;;;;;6212621;28;20187;-67
2023/10/01 05:31:34;;;;;;;20.43;11.00;;;;;;;;;;6208943;28;20203;-68
2023/10/01 05:34:36;;;;;;;18.40;10.23;;;;;;;;;;6209277;28;20204;-67
2023/10/01 05:37:37;;;;;;;24.13;12.20;;;;;;;;;;6210489;28;20203;-67
2023/10/01 05:40:40;;;;;;;22.87;11.97;;;;;;;;;;6220153;28;20226;-68
2023/10/01 05:43:47;;;;;;;19.77;9.67;;;;;;;;;;6226253;28;20215;-68
2023/10/01 05:46:48;;;;;;;18.83;10.67;;;;;;;;;;6204472;28;20290;-69
2023/10/01 05:49:53;;;;;;;19.67;11.10;;;;;;;;;;6209701;28;20278;-69
2023/10/01 05:52:55;;;;;;;18.63;10.90;;;;;;;;;;6204175;28;20191;-69
2023/10/01 05:55:56;;;;;;;19.60;11.03;;;;;;;;;;6202857;28;20250;-69
2023/10/01 05:58:58;;;;;;;20.87;11.20;;;;;;;;;;6207867;28;20210;-69
2023/10/01 06:01:59;;;;;;;18.83;11.83;;;;;;;;;;6214084;28;20203;-68
2023/10/01 06:05:22;;;;;;;21.97;11.10;;;;;;;;;;6210536;28;20200;-68
2023/10/01 06:08:24;;;;;;;21.80;10.80;;;;;;;;;;6225099;28;20278;-69
2023/10/01 06:11:39;;;;;;;23.23;10.97;;;;;;;;;;6196480;28;20218;-69
2023/10/01 06:14:40;;;;;;;17.97;10.80;;;;;;;;;;6232232;28;20195;-70
2023/10/01 06:17:42;;;;;;;19.33;10.67;;;;;;;;;;6204628;28;20197;-66
2023/10/01 06:20:43;;;;;;;21.03;11.87;;;;;;;;;;6192887;28;20202;-67
2023/10/01 06:23:51;;;;;;;18.43;10.87;;;;;;;;;;6210475;28;20246;-66
2023/10/01 06:26:56;;;;;;;21.37;11.47;;;;;;;;;;6213495;28;20215;-70
2023/10/01 06:30:00;;;;;;;18.33;10.90;;;;;;;;;;6214399;28;20293;-72
2023/10/01 06:33:01;;;;;;;24.37;12.07;;;;;;;;;;6207094;28;20202;-72
2023/10/01 06:36:21;;;;;;;19.67;10.93;;;;;;;;;;6229956;28;20191;-72
2023/10/01 06:39:24;;;;;;;23.43;11.40;;;;;;;;;;6213672;28;20191;-71
2023/10/01 06:42:25;;;;;;;16.40;11.70;;;;;;;;;;6212124;28;20213;-69
2023/10/01 06:45:42;;;;;;;21.53;11.70;;;;;;;;;;6214544;28;20182;-69
2023/10/01 06:48:46;;;;;;;22.30;11.77;;;;;;;;;;6227378;28;20278;-67
2023/10/01 06:51:50;;;;;;;21.03;11.67;;;;;;;;;;6231240;28;20192;-66
2023/10/01 06:54:52;;;;;;;20.87;10.93;;;;;;;;;;6212140;28;20281;-68
2023/10/01 06:57:54;;;;;;;18.47;10.33;;;;;;;;;;6210794;28;20207;-67
2023/10/01 07:00:56;;;;;;;18.87;10.97;;;;;;;;;;6230755;28;20195;-67
2023/10/01 07:03:57;;;;;;;22.87;11.67;;;;;;;;;;6210509;28;20224;-68
2023/10/01 07:06:59;;;;;;;22.57;12.40;;;;;;;;;;6204778;28;20190;-70
2023/10/01 07:10:01;;;;;;;19.40;11.67;;;;;;;;;;6229127;28;20191;-69
2023/10/01 07:13:05;;;;;;;19.33;11.80;;;;;;;;;;6220875;28;20199;-70
2023/10/01 07:16:08;;;;;;;17.40;11.63;;;;;;;;;;6226723;28;20183;-70
2023/10/01 07:19:11;;;;;;;21.07;11.50;;;;;;;;;;6220425;28;20223;-71
2023/10/01 07:22:14;;;;;;;17.07;10.67;;;;;;;;;;6203432;28;20252;-71
2023/10/01 07:28:59;;;;;;;18.13;10.53;;;;;;;;;;6104547;29;20218;-70
2023/10/01 07:32:07;;;;;;;20.90;10.10;;;;;;;;;;6126761;29;20192;-70
2023/10/01 07:35:09;;;;;;;17.37;11.03;;;;;;;;;;6231481;28;20188;-70
2023/10/01 07:38:10;;;;;;;18.77;10.93;;;;;;;;;;6213185;28;20185;-70
2023/10/01 07:41:14;;;;;;;16.80;10.20;;;24.00;50.00;;;;;;6214030;28;20198;-70
2023/10/01 07:44:15;;;;;;;15.37;9.57;;;14.90;86.60;;;;;;6195489;28;20302;-70
2023/10/01 07:47:28;;;;;;;17.27;10.13;;;15.00;86.40;;;;;;6225920;28;20186;-70
2023/10/01 07:50:29;;;;;;;14.07;9.30;;;;;;;;;;6246532;28;20186;-70
2023/10/01 07:53:34;;;;;;;18.13;10.37;;;;;;;;;;6211847;28;20190;-70
2023/10/01 07:56:35;;;;;;;15.73;10.17;;;;;;;;;;6221192;28;20208;-69
2023/10/01 07:59:36;;;;;;;17.83;11.17;;;;;;;;;;6212327;28;20204;-70
2023/10/01 08:03:27;;;;;;;13.47;8.87;;;;;;;;;;6205545;28;20222;-70
2023/10/01 08:06:12;;;;;;;17.53;10.83;;;;;;;;;;6218743;28;20188;-70
2023/10/01 08:09:13;;;;;;;16.60;10.27;;;;;;;;;;6207341;28;20191;-70
2023/10/01 08:12:14;;;;;;;16.63;9.63;;;;;;;;;;6222858;28;20187;-70
2023/10/01 08:15:15;;;;;;;15.43;9.50;;;;;;;;;;6210851;28;20193;-70
2023/10/01 08:18:26;;;;;;;14.33;8.70;;;;;;;;;;6237162;28;20209;-70
2023/10/01 08:21:36;;;;;;;14.37;9.13;;;;;;;;;;6237842;28;20195;-70
2023/10/01 08:24:38;;;;;;;14.73;9.20;;;;;;;;;;6204004;28;20243;-70
2023/10/01 08:28:08;;;;;;;14.70;8.70;;;;;;;;;;6222583;28;20284;-70
2023/10/01 08:31:20;;;;;;;15.50;8.40;;;;;;;;;;6217065;28;20187;-70
2023/10/01 08:34:27;;;;;;;15.27;9.20;;;;;;;;;;6218525;28;20202;-70
2023/10/01 08:37:31;;;;;;;11.83;8.13;;;;;;;;;;6239591;28;20194;-70
2023/10/01 08:40:34;;;;;;;13.40;8.43;;;;;;;;;;6223060;28;20191;-70
2023/10/01 08:43:35;;;;;;;13.40;8.67;;;;;;;;;;6205857;28;20245;-70
2023/10/01 08:46:40;;;;;;;17.27;9.27;;;;;;;;;;6212978;28;20225;-70
2023/10/01 08:49:44;;;;;;;13.63;9.10;;;;;;;;;;6227467;28;20201;-70
2023/10/01 08:53:01;;;;;;;13.73;8.90;;;;;;;;;;6222663;28;20195;-70
2023/10/01 08:56:05;;;;;;;15.83;9.97;;;;;;;;;;6218945;28;20280;-70
2023/10/01 08:59:23;;;;;;;15.80;9.53;;;;;;;;;;6226918;28;20187;-69
2023/10/01 09:02:24;;;;;;;12.77;8.77;;;;;;;;;;6217118;28;20266;-70
2023/10/01 09:05:25;;;;;;;12.97;8.60;;;;;;;;;;6210478;28;20240;-69
2023/10/01 09:08:31;;;;;;;12.30;7.77;;;;;;;;;;6210497;28;20198;-69
2023/10/01 09:11:42;;;;;;;15.30;9.30;;;;;;;;;;6202210;28;20188;-69
2023/10/01 09:14:43;;;;;;;13.37;8.57;;;;;;;;;;6204612;28;20191;-69
2023/10/01 09:17:56;;;;;;;13.00;8.27;;;;;;;;;;6226125;28;20205;-70
2023/10/01 09:21:06;;;;;;;10.77;7.37;;;;;;;;;;6224829;28;20199;-70
2023/10/01 09:24:42;;;;;;;13.27;8.10;;;;;;;;;;6221186;28;20245;-70
2023/10/01 09:27:36;;;;;;;14.83;8.43;;;;;;;;;;6234182;28;20203;-70
2023/10/01 09:30:56;;;;;;;14.83;8.87;;;;;;;;;;6231096;28;20213;-70
2023/10/01 09:33:57;;;;;;;16.83;9.20;;;;;;;;;;6225570;28;20198;-70
2023/10/01 09:37:01;;;;;;;14.53;8.43;;;;;;;;;;6208607;28;20206;-70
2023/10/01 09:40:25;;;;;;;12.00;8.33;;;;;;;;;;6224989;28;20202;-70
2023/10/01 09:43:33;;;;;;;10.60;7.90;;;15.00;86.60;;;;;;6220423;28;20224;-70
2023/10/01 09:46:37;;;;;;;12.60;8.57;;;16.30;82.40;;;;;;6206713;28;20593;-70
2023/10/01 09:49:40;;;;;;;14.83;9.50;;;16.40;82.10;;;;;;6212817;28;20192;-70
2023/10/01 09:52:50;;;;;;;13.90;9.17;;;16.50;81.00;;;;;;6193438;28;20206;-70
2023/10/01 09:55:57;;;;;;;15.97;9.00;;;16.70;81.20;;;;;;6190143;28;20199;-70
2023/10/01 09:59:03;;;;;;;17.50;10.97;;;;;;;;;;6210202;28;20208;-70
2023/10/01 10:02:04;;;;;;;15.00;9.80;;;;;;;;;;6212950;28;20294;-70
2023/10/01 10:05:06;;;;;;;13.80;9.13;;;;;;;;;;6211174;28;20209;-70
2023/10/01 10:08:20;;;;;;;17.27;10.07;;;;;;;;;;6199280;28;20286;-70
2023/10/01 10:11:26;;;;;;;13.90;9.10;;;;;;;;;;6228998;28;20218;-70
2023/10/01 10:14:33;;;;;;;14.50;9.87;;;;;;;;;;6232188;28;20296;-71
2023/10/01 10:17:54;;;;;;;18.43;10.07;;;;;;;;;;6222754;28;20188;-70
2023/10/01 10:21:03;;;;;;;17.93;9.63;;;;;;;;;;6219995;28;20237;-70
2023/10/01 10:24:21;;;;;;;14.00;9.43;;;;;;;;;;6220331;28;20295;-70
2023/10/01 10:27:25;;;;;;;16.07;10.43;;;;;;;;;;6224183;28;20200;-70
2023/10/01 10:30:27;;;;;;;17.17;10.63;;;;;;;;;;6230316;28;20213;-70
2023/10/01 10:33:39;;;;;;;17.23;10.83;;;;;;;;;;6224581;28;20244;-70
2023/10/01 10:36:54;;;;;;;19.43;11.70;;;;;;;;;;6200949;28;20208;-70
2023/10/01 10:43:34;;;;;;;15.07;10.27;;;;;;;;;;6140687;28;20217;-70
2023/10/01 10:46:59;;;;;;;19.80;10.67;;;;;;;;;;6145502;28;20214;-70
2023/10/01 10:50:11;;;;;;;16.70;10.60;;;;;;;;;;6226535;28;20195;-70
2023/10/01 10:53:15;;;;;;;16.37;10.63;;;;;;;;;;6224209;28;20290;-70
2023/10/01 10:56:16;;;;;;;18.10;10.60;;;;;;;;;;6228945;28;20222;-71
2023/10/01 10:59:19;;;;;;;18.93;10.90;;;;;;;;;;6236906;28;20215;-70
2023/10/01 11:02:20;;;;;;;17.13;10.90;;;;;;;;;;6211401;28;20191;-70
2023/10/01 11:05:22;;;;;;;17.37;10.57;;;;;;;;;;6203837;28;20222;-70
2023/10/01 11:08:30;;;;;;;18.93;10.63;;;;;;;;;;6223687;28;20222;-70
2023/10/01 11:11:39;;;;;;;18.13;10.70;;;;;;;;;;6216417;28;20196;-70
2023/10/01 11:14:42;;;;;;;15.47;10.10;;;;;;;;;;6207304;28;20234;-70
2023/10/01 11:17:43;;;;;;;17.07;10.47;;;;;;;;;;6224954;28;20290;-70
2023/10/01 11:21:00;;;;;;;18.77;11.17;;;;;;;;;;6229582;28;20202;-70
2023/10/01 11:24:02;;;;;;;17.53;10.33;;;;;;;;;;6230251;28;20268;-70
2023/10/01 11:27:14;;;;;;;15.70;9.73;;;;;;;;;;6199933;28;20202;-70
2023/10/01 11:30:16;;;;;;;17.77;9.80;;;;;;;;;;6224047;28;20240;-70
2023/10/01 11:33:31;;;;;;;15.77;10.40;;;;;;;;;;6198088;28;20246;-70
2023/10/01 11:36:38;;;;;;;16.97;10.13;;;;;;;;;;6218045;28;20212;-70
2023/10/01 11:39:40;;;;;;;15.63;10.57;;;;;;;;;;6224892;28;20253;-70
2023/10/01 11:42:52;;;;;;;15.80;10.13;;;;;;;;;;6208929;28;20214;-71
2023/10/01 11:46:23;;;;;;;14.67;9.67;;;;;;;;;;6217927;28;20191;-70
2023/10/01 11:49:37;;;;;;;16.60;10.90;;;;;;;;;;6213906;28;20180;-70
2023/10/01 11:52:42;;;;;;;18.53;10.73;;;;;;;;;;6225792;28;20195;-70
2023/10/01 11:55:43;;;;;;;15.73;9.70;;;;;;;;;;6205879;28;20221;-70
2023/10/01 11:58:44;;;;;;;16.40;10.70;;;;;;;;;;6223143;28;20201;-70
2023/10/01 12:01:53;;;;;;;17.57;9.53;;;;;;;;;;6206941;28;20203;-70
2023/10/01 12:04:58;;;;;;;16.57;10.60;;;;;;;;;;6225159;28;20277;-70
2023/10/01 12:07:59;;;;;;;16.90;9.93;;;;;;;;;;6215091;28;20214;-71
2023/10/01 12:11:26;;;;;;;17.87;10.10;;;;;;;;;;6190202;28;20285;-70
2023/10/01 12:14:21;;;;;;;19.83;11.40;;;;;;;;;;6232045;28;20205;-70
2023/10/01 12:17:25;;;;;;;17.83;11.60;;;;;;;;;;6227224;28;20190;-70
2023/10/01 12:20:29;;;;;;;15.73;10.00;;;;;;;;;;6226026;28;20203;-71
2023/10/01 12:23:33;;;;;;;16.30;11.50;;;16.80;81.20;;;;;;6217191;28;20238;-71
2023/10/01 12:26:36;;;;;;;15.50;11.53;;;;;;;;;;6199480;28;20198;-70
2023/10/01 12:29:43;;;;;;;13.70;10.70;;;;;;;;;;6208413;28;20202;-70
2023/10/01 12:32:48;;;;;;;14.43;10.60;;;;;;;;;;6231313;28;20282;-70
2023/10/01 12:35:49;;;;;;;13.63;10.87;;;;;;;;;;6212180;28;20282;-70
2023/10/01 12:39:03;;;;;;;15.47;11.13;;;;;;;;;;6208783;28;20194;-70
2023/10/01 12:42:04;;;;;;;13.83;9.93;;;;;;;;;;6215166;28;20198;-69
2023/10/01 12:45:14;;;;;;;15.53;11.73;;;;;;;;;;6226279;28;20244;-69
2023/10/01 12:48:20;;;;;;;16.43;11.00;;;;;;;;;;6229066;28;20213;-69
2023/10/01 12:51:21;;;;;;;17.40;11.93;;;;;;;;;;6216770;28;20201;-70
2023/10/01 12:54:25;;;;;;;16.37;12.23;;;;;;;;;;6207906;28;20187;-70
2023/10/01 12:57:33;;;;;;;15.20;11.07;;;;;;;;;;6215617;28;20183;-70
2023/10/01 13:00:46;;;;;;;14.63;10.63;;;;;;;;;;6208382;28;20188;-70
2023/10/01 13:03:47;;;;;;;14.87;11.37;;;23.00;57.80;;;;;;6210182;28;20253;-70
2023/10/01 13:06:49;;;;;;;14.10;10.70;;;23.80;55.30;;;;;;6208087;28;20230;-70
2023/10/01 13:09:53;;;;;;;17.30;10.90;;;23.90;55.60;;;;;;6227158;28;20183;-69
2023/10/01 13:12:57;;;;;;;15.33;9.80;;;24.00;56.00;;;;;;6187464;28;20195;-70
2023/10/01 13:15:59;;;;;;;13.50;10.20;;;24.00;56.10;;;;;;6209733;28;20209;-70
2023/10/01 13:19:01;;;;;;;15.17;10.67;;;24.20;54.10;;;;;;6245197;28;20198;-70
2023/10/01 13:22:04;;;;;;;15.60;10.80;;;24.70;53.90;;;;;;6209075;28;20325;-70
2023/10/01 13:25:06;;;;;;;14.17;9.03;;;;;;;;;;6226157;28;20318;-70
2023/10/01 13:28:07;;;;;;;12.50;9.87;;;;;;;;;;6229785;28;20273;-70
2023/10/01 13:31:11;;;;;;;11.47;9.30;;;;;;;;;;6206982;28;20210;-71
2023/10/01 13:40:29;;;;;;;10.77;9.33;;;;;;;;;;6237966;28;20198;-68
2023/10/01 14:10:15;;;;;;;12.57;9.33;;;26.90;50.20;;;;;;6241624;28;20180;-69
2023/10/01 14:13:29;;;;;;;13.53;10.43;;;26.90;48.40;;;;;;6212648;28;20191;-70
2023/10/01 14:16:30;;;;;;;10.03;8.80;;;26.60;49.10;;;;;;6194969;28;20191;-69
2023/10/01 14:19:30;;;;;;;14.67;9.90;;;26.50;50.90;;;;;;6205225;28;20268;-70
2023/10/01 14:22:49;;;;;;;13.30;10.43;;;26.70;51.40;;;;;;6208022;28;20237;-70
2023/10/01 14:26:10;;;;;;;11.27;9.30;;;27.00;49.70;;;;;;6197867;28;20191;-70
2023/10/01 14:29:11;;;;;;;14.97;10.37;;;27.30;49.40;;;;;;6213477;28;20195;-70
2023/10/01 14:32:11;;;;;;;12.37;9.63;;;27.60;47.50;;;;;;6200790;28;20258;-70
2023/10/01 14:35:15;;;;;;;11.77;9.43;;;28.00;46.50;;;;;;6190973;28;20277;-70
2023/10/01 14:38:16;;;;;;;11.10;8.97;;;28.10;47.10;;;;;;6196521;28;20183;-70
2023/10/01 14:41:17;;;;;;;11.60;9.37;;;28.00;47.90;;;;;;6189175;28;20282;-70
2023/10/01 14:44:24;;;;;;;12.90;8.67;;;27.90;48.20;;;;;;6187742;28;20217;-70
2023/10/01 14:47:26;;;;;;;11.67;9.43;;;28.00;47.30;;;;;;6194938;28;20286;-70
2023/10/01 14:50:26;;;;;;;12.97;9.10;;;28.20;48.00;;;;;;6196202;28;20274;-70
2023/10/01 14:53:36;;;;;;;13.93;9.80;;;;;;;;;;6193514;28;20190;-70
2023/10/01 14:56:37;;;;;;;13.03;10.00;;;;;;;;;;6210027;28;20194;-70
2023/10/01 14:59:38;;;;;;;12.30;9.50;;;;;;;;;;6207844;28;20215;-70
2023/10/01 15:02:40;;;;;;;11.80;9.37;;;;;;;;;;6208542;28;20238;-70
2023/10/01 15:05:41;;;;;;;13.50;8.93;;;;;;;;;;6210922;28;20194;-70
2023/10/01 15:08:42;;;;;;;13.60;10.37;;;;;;;;;;6201360;28;20186;-70
2023/10/01 15:11:48;;;;;;;14.70;9.97;;;;;;;;;;6199156;28;20197;-70
2023/10/01 15:14:53;;;;;;;14.00;9.37;;;;;;;;;;6212920;28;20281;-70
2023/10/01 15:17:56;;;;;;;13.80;9.27;;;;;;;;;;6218515;28;20202;-70
2023/10/01 15:20:57;;;;;;;14.00;9.63;;;;;;;;;;6220383;28;20256;-70
2023/10/01 15:24:07;;;;;;;15.77;9.43;;;;;;;;;;6197122;28;20278;-70
2023/10/01 15:27:08;;;;;;;14.07;9.67;;;;;;;;;;6205069;28;20226;-70
2023/10/01 15:30:20;;;;;;;15.20;10.20;;;;;;;;;;6204308;28;20187;-70
2023/10/01 15:33:22;;;;;;;14.00;9.70;;;28.40;47.70;;;;;;6204542;28;20199;-69
2023/10/01 15:36:24;;;;;;;14.70;10.03;;;;;;;;;;6196545;28;20191;-70
2023/10/01 15:39:45;;;;;;;14.73;10.07;;;;;;;;;;6186050;28;20293;-71
2023/10/01 15:42:53;;;;;;;13.77;9.10;;;25.90;51.40;;;;;;6218832;28;20222;-70
2023/10/01 15:46:12;;;;;;;13.23;9.33;;;25.50;52.50;;;;;;6185078;28;20195;-70
2023/10/01 15:49:18;;;;;;;12.87;8.93;;;;;;;;;;6197079;28;20196;-69
2023/10/01 15:52:21;;;;;;;14.27;9.83;;;25.00;54.00;;;;;;6198069;28;20183;-69
2023/10/01 15:55:31;;;;;;;12.07;9.00;;;;;;;;;;6182442;28;20206;-70
2023/10/01 15:58:32;;;;;;;11.90;8.97;;;;;;;;;;6186100;28;20184;-70
2023/10/01 16:01:33;;;;;;;11.07;8.17;;;24.00;50.00;;;;;;6212067;28;20190;-70
2023/10/01 16:04:44;;;;;;;15.10;9.17;;;;;;;;;;6193147;28;20241;-70
2023/10/01 16:07:45;;;;;;;12.20;8.27;;;;;;;;;;6191698;28;20196;-70
2023/10/01 16:10:58;;;;;;;15.13;9.27;;;;;;;;;;6198730;28;20187;-70
2023/10/01 16:14:04;;;;;;;13.83;9.13;;;;;;;;;;6213317;28;20234;-70
2023/10/01 16:17:20;;;;;;;14.63;8.90;;;;;;;;;;6200279;28;20196;-66
2023/10/01 16:20:21;;;;;;;13.17;9.17;;;24.00;50.00;;;;;;6203824;28;20214;-67
2023/10/01 16:23:22;;;;;;;13.67;8.97;;;;;;;;;;6197324;28;20238;-67
2023/10/01 16:26:24;;;;;;;13.83;8.97;;;21.30;65.00;;;;;;6196338;28;20196;-68
2023/10/01 16:29:25;;;;;;;14.10;8.73;;;;;;;;;;6205832;28;20246;-68
2023/10/01 16:32:27;;;;;;;12.83;8.03;;;;;;;;;;6207661;28;20191;-68
2023/10/01 16:35:28;;;;;;;11.83;8.30;;;;;;;;;;6200888;28;20187;-68
2023/10/01 16:38:31;;;;;;;14.93;8.63;;;;;;;;;;6193235;28;20191;-67
2023/10/01 16:41:32;;;;;;;13.23;9.03;;;;;;;;;;6213956;28;20184;-69
2023/10/01 16:44:36;;;;;;;13.40;8.40;;;;;;;;;;6199522;28;20231;-70
2023/10/01 16:47:51;;;;;;;16.03;9.30;;;;;;;;;;6220163;28;20195;-69
2023/10/01 16:54:38;;;;;;;12.83;8.90;;;24.00;50.00;;;;;;6116871;28;20202;-71
2023/10/01 16:57:38;;;;;;;12.90;8.50;;;19.20;72.00;;;;;;6209459;28;20196;-70
2023/10/01 17:00:40;;;;;;;13.07;9.37;;;;;;;;;;6194738;28;20239;-70
2023/10/01 17:03:57;;;;;;;14.40;9.13;;;;;;;;;;6207017;28;20281;-70
2023/10/01 17:06:58;;;;;;;13.87;8.77;;;;;;;;;;6221065;28;20192;-69
2023/10/01 17:10:05;;;;;;;14.33;9.07;;;;;;;;;;6226396;28;20194;-70
2023/10/01 17:13:11;;;;;;;15.37;8.77;;;;;;;;;;6213395;28;20200;-70
2023/10/01 17:16:18;;;;;;;12.47;8.67;;;;;;;;;;6196633;28;20253;-70
2023/10/01 17:19:32;;;;;;;15.73;9.20;;;;;;;;;;6235329;28;20195;-70
2023/10/01 17:22:33;;;;;;;11.63;8.37;;;;;;;;;;6215493;28;20330;-71
2023/10/01 17:25:37;;;;;;;15.00;8.77;;;;;;;;;;6201965;28;20255;-71
2023/10/01 17:28:39;;;;;;;13.47;9.13;;;;;;;;;;6196635;28;20211;-71
2023/10/01 17:31:41;;;;;;;15.90;8.53;;;;;;;;;;6218574;28;20192;-71
2023/10/01 17:34:43;;;;;;;14.07;8.90;;;;;;;;;;6196540;28;20191;-71
2023/10/01 17:37:46;;;;;;;11.83;8.67;;;;;;;;;;6206362;28;20283;-70
2023/10/01 17:40:48;;;;;;;14.50;8.70;;;;;;;;;;6219585;28;20319;-69
2023/10/01 17:43:58;;;;;;;12.47;8.17;;;;;;;;;;6198273;28;20212;-69
2023/10/01 17:47:00;;;;;;;15.60;8.93;;;;;;;;;;6219000;28;20211;-69
2023/10/01 17:50:03;;;;;;;12.20;8.13;;;;;;;;;;6206616;28;20188;-70
2023/10/01 17:53:05;;;;;;;11.07;8.10;;;;;;;;;;6214332;28;20188;-72
2023/10/01 17:56:20;;;;;;;13.07;8.77;;;;;;;;;;6202207;28;20195;-71
2023/10/01 17:59:26;;;;;;;15.03;8.77;;;;;;;;;;6221313;28;20212;-70
2023/10/01 18:02:29;;;;;;;19.50;9.57;;;;;;;;;;6221102;28;20192;-70
2023/10/01 18:05:31;;;;;;;14.77;10.40;;;;;;;;;;6220361;28;20184;-69
2023/10/01 18:08:37;;;;;;;14.70;8.97;;;;;;;;;;6195427;28;20199;-69
2023/10/01 18:11:40;;;;;;;14.03;9.00;;;;;;;;;;6225586;28;20200;-69
2023/10/01 18:14:50;;;;;;;12.83;9.03;;;;;;;;;;6223558;28;20210;-70
2023/10/01 18:17:55;;;;;;;13.37;9.07;;;;;;;;;;6211233;28;20253;-70
2023/10/01 18:21:11;;;;;;;15.87;9.60;;;;;;;;;;6223754;28;20226;-71
2023/10/01 18:24:13;;;;;;;13.33;9.30;;;;;;;;;;6220761;28;20369;-71
2023/10/01 18:27:15;;;;;;;14.33;8.77;;;;;;;;;;6208484;28;20218;-71
2023/10/01 18:30:16;;;;;;;14.73;9.10;;;;;;;;;;6204108;28;20191;-70
2023/10/01 18:33:18;;;;;;;16.13;8.50;;;;;;;;;;6204871;28;20188;-71
2023/10/01 18:36:21;;;;;;;17.73;10.47;;;;;;;;;;6211694;28;20192;-70
2023/10/01 18:39:26;;;;;;;13.57;9.03;;;;;;;;;;6215576;28;20187;-71
2023/10/01 18:42:27;;;;;;;15.23;9.83;;;;;;;;;;6212067;28;20242;-71
2023/10/01 18:45:30;;;;;;;16.50;9.17;;;;;;;;;;6197782;28;20215;-71
2023/10/01 18:48:38;;;;;;;17.43;8.83;;;;;;;;;;6207727;28;20253;-70
2023/10/01 18:51:39;;;;;;;14.83;8.83;;;;;;;;;;6208903;28;20248;-70
2023/10/01 18:54:41;;;;;;;13.90;9.37;;;;;;;;;;6193866;28;20195;-67
2023/10/01 18:57:43;;;;;;;15.43;9.30;;;;;;;;;;6207054;28;20206;-68